Faya Largeau Airport Faya-Largeau TD
ICAO: FTTY
IATA: FYT
Category: Medium
Scheduled Services: No

Elevation: 771 ft
TransAlt. 18000 ft.

Airport Communications:
AFIS:118.1

FTTY Zoom In..

If you have problems with the map follow the link
https://www.worldairports.se/pages/airport.php?
ICAO=FTTY

Runways:

(A) RW 06 length 9186 ft width 148 ft
---- / hdg 56

(B) RW 24 length 9186 ft width 148 ft
---- / hdg 236

Location; FTTY
Day. 28 / Time. 15.00 Zulu
* QNH: 1016
* Temperature: 29° c. 84.2°f.
* Wind from: 040° Speed 10 kn.
Dewpoint: 10° c.
Visibility: 10 km or more,
No clouds below 1,500 m.
No cumulonimbus, and no significant weather
fenomena in the aerodrome or its vicinity.

FTTY 281500Z 04010KT CAVOK 29/10 Q1016


Wind From 040°
Speed 10 kn.

 
 
jpsmedia worldairports.se 2020   terms of use